METAR Data
IDs: Format: Raw Decoded Include TAF

Data at: 0747 UTC 08 May 2021

EGPH 080720Z 09008KT CAVOK 06/03 Q1003
EGPH 080620Z 06007KT CAVOK 04/03 Q1005
EGPH 080550Z 05005KT CAVOK 03/03 Q1005
EGPH 080520Z 10004KT CAVOK 02/02 Q1006
EGPH 080450Z 00000KT CAVOK 00/M00 Q1007
EGPH 080420Z 04002KT CAVOK 00/M00 Q1007
EGPH 080350Z 00000KT CAVOK M00/M01 Q1008
EGPH 080320Z 00000KT CAVOK 00/M01 Q1008
EGPH 080250Z 34001KT CAVOK 00/M01 Q1009
EGPH 080220Z VRB02KT CAVOK M01/M01 Q1009
EGPH 080150Z 25002KT CAVOK M00/M01 Q1010
EGPH 080120Z 26001KT CAVOK 00/M01 Q1010
EGPH 080050Z 25002KT CAVOK 01/M00 Q1010
EGPH 080020Z 21001KT CAVOK 01/M01 Q1011
EGPH 072350Z 24003KT CAVOK 01/M01 Q1011
EGPH 072320Z 09002KT CAVOK 01/00 Q1011
EGPH 072250Z 27001KT CAVOK 03/01 Q1012
EGPH 072220Z 27001KT CAVOK 03/01 Q1012
EGPH 072150Z 24003KT CAVOK 04/03 Q1012
EGPH 072120Z VRB02KT CAVOK 04/02 Q1012
EGPH 072050Z VRB01KT CAVOK 05/03 Q1012
EGPH 072020Z 04004KT CAVOK 06/03 Q1012
EGPH 071950Z 03006KT 9999 FEW047 07/04 Q1012
EGPH 071920Z 04006KT CAVOK 08/03 Q1012
EGPH 071850Z 04002KT CAVOK 08/03 Q1012
EGPH 071820Z 05002KT CAVOK 09/02 Q1012
EGPH 071750Z VRB02KT 9999 FEW040 10/02 Q1012
EGPH 071720Z VRB02KT 9999 SCT048 10/02 Q1012
EGPH 071650Z 06004KT 9999 SCT048 09/04 Q1012
EGPH 071620Z 11005KT CAVOK 10/04 Q1012
EGPH 071550Z 07005KT 9999 SCT047 09/04 Q1013
EGPH 071520Z 11004KT 070V140 9999 FEW027 SCT040 09/03 Q1013
EGPH 071450Z 04005KT 9999 -RA BKN042 09/03 Q1013
EGPH 071420Z 07005KT 030V110 9999 SCT038 10/04 Q1013
EGPH 071350Z VRB03KT 9999 SCT046 10/04 Q1013
EGPH 071320Z 01005KT 330V060 9999 SCT035 09/05 Q1013
EGPH 071250Z 33006KT 280V010 9999 FEW016 BKN026 BKN048 07/04 Q1014
EGPH 071220Z 28008KT 240V320 9999 -SHRA BKN041 09/00 Q1013
EGPH 071150Z 17004KT 090V240 9999 VCSH SCT039 11/02 Q1013
EGPH 071120Z 21006KT 160V250 9999 SCT038 11/02 Q1013
EGPH 071050Z 22006KT 170V250 9999 BKN033 09/01 Q1013
EGPH 071020Z VRB04KT CAVOK 09/02 Q1013
EGPH 070950Z 30004KT 250V360 CAVOK 09/02 Q1013
EGPH 070920Z VRB03KT 9999 FEW025 08/03 Q1013
EGPH 070850Z 28004KT 230V360 9999 SCT027 08/03 Q1013
EGPH 070820Z 25005KT 220V280 9999 FEW030 08/03 Q1013
EGPH 070750Z 21004KT 160V250 9999 FEW030 07/03 Q1013
EGPH 070720Z 24004KT 210V280 9999 SCT048 06/03 Q1013
EGPH 070650Z 25005KT 9999 SCT048 05/03 Q1012
EGPH 070620Z 24003KT 9999 SCT038 04/03 Q1012
EGPH 070550Z VRB01KT 9999 BKN040 03/02 Q1012
EGPH 070520Z 25001KT 9999 BKN037 03/02 Q1012
EGPH 070450Z 33001KT CAVOK 02/02 Q1012
EGPH 070420Z VRB02KT CAVOK 02/01 Q1012
EGPH 070350Z 25004KT CAVOK 02/01 Q1011
EGPH 070320Z 25006KT CAVOK 02/01 Q1011
EGPH 070250Z 27002KT 9999 FEW040 02/01 Q1011
EGPH 070220Z 24005KT 9999 FEW040 01/00 Q1011
EGPH 070150Z 25004KT 9999 FEW040 02/01 Q1011
EGPH 070120Z 27002KT 9999 FEW042 03/02 Q1010
EGPH 070050Z VRB01KT 9999 SCT036 04/03 Q1010
EGPH 070020Z 26002KT 9999 FEW037 BKN047 04/03 Q1010
EGPH 062350Z 24003KT CAVOK 04/03 Q1010
EGPH 062320Z 00000KT CAVOK 04/03 Q1010
EGPH 062250Z 24004KT 9999 BKN043 04/03 Q1009
EGPH 062220Z VRB02KT CAVOK 05/04 Q1009
EGPH 062150Z 00000KT CAVOK 05/04 Q1009
EGPH 062120Z VRB01KT 9999 BKN040 05/04 Q1009
EGPH 062050Z VRB01KT 9999 FEW019 BKN044 05/03 Q1008
EGPH 062020Z 02004KT 300V070 9999 -RA OVC029 06/04 Q1008
EGPH 061950Z VRB02KT 9999 FEW014 BKN027 OVC043 06/04 Q1008